首页
METAR-TAF:

METAR-TAF

机场 :

艾登, 土耳其

纬度: 37-48-54N, 经度: 27-53-21E, 海拔: 31米

当前天气观测

该预报发布于37分钟前的07:50 UTC
风速9节,风向
温度 15°C
湿度 82%
气压 1021 hPa
能見度: 8000
少量云层高于4000英尺
散云层高于8000英尺
多云层高于18000英尺

METAR: LTBD 200750Z 09009KT 8000 FEW040 SCT080 BKN180 15/12 Q1021

时间: 11:27 (08:27 UTC)

预报

该预报发布于3小时和47分钟前的04:40 UTC
预报有效从20日的 06点(UTC)到 20日的 15点(UTC)
风速2节,风向多变
能見度: 4000
少量云层高于1000英尺
散云层高于3500英尺
多云层高于10000英尺
轻雾
成为
从 20日的 06点(UTC)到 20日的 08点(UTC)
能见度10公里或以上

TAF: LTBD 200440Z 2006/2015 VRB02KT 4000 BR FEW010 SCT035 BKN100 BECMG 2006/2008 9999 NSW

超过4000个机场的气象观测和天气预报(METAR&TAF报告)。

可查询的气象台以黄色和红色小点在地图上表示。

将鼠标移到小点上方,可查看气象台名称。

然后点击查看天气观测和预报。

如需切换地图:点击带黑十字的绿色按钮放大地图;点击带横线的绿色按钮缩小地图;或者点击绿色箭头查看邻近地区的地图。


METAR-TAF: